Time;durP1;ratioP1;P1;durP2;ratioP2;P2;SDS_P1;SDS_P2;PMS_P1;PMS_P2;Temp;Humidity;BMP_temperature;BMP_pressure;BME280_temperature;BME280_humidity;BME280_pressure;Samples;Min_cycle;Max_cycle;Signal;HPM_P1;HPM_P2
2021/03/04 00:00:37;;;;;;;;;91.00;63.00;;;;;1.05;69.40;102226.75;5083692;28;8831;-75
2021/03/04 00:03:33;;;;;;;;;75.00;60.67;;;;;0.87;69.11;102222.16;5085374;28;8811;-76
2021/03/04 00:06:01;;;;;;;;;82.75;63.75;;;;;0.68;69.84;102228.69;5065913;28;8890;-76
2021/03/04 00:08:56;;;;;;;;;74.25;57.50;;;;;0.77;69.83;102213.72;5082290;28;8815;-75
2021/03/04 00:11:52;;;;;;;;;81.00;66.67;;;;;0.93;69.21;102218.53;5067416;28;8851;-75
2021/03/04 00:14:47;;;;;;;;;77.00;61.33;;;;;0.97;68.54;102205.28;5084600;28;8845;-75
2021/03/04 00:17:46;;;;;;;;;83.33;65.00;;;;;1.02;68.26;102199.97;5083854;28;8823;-74
2021/03/04 00:20:42;;;;;;;;;66.75;53.25;;;;;0.86;68.26;102195.16;5082600;28;8854;-75
2021/03/04 00:23:38;;;;;;;;;81.75;63.75;;;;;0.82;68.22;102192.88;5076808;28;8887;-75
2021/03/04 00:26:34;;;;;;;;;81.00;63.75;;;;;0.90;68.60;102185.47;5081425;28;8837;-76
2021/03/04 00:29:29;;;;;;;;;68.00;51.33;;;;;0.77;69.54;102187.31;5070496;28;8903;-75
2021/03/04 00:32:25;;;;;;;;;72.67;53.33;;;;;0.92;70.25;102178.75;5085309;28;9610;-75
2021/03/04 00:34:53;;;;;;;;;78.00;64.75;;;;;1.00;70.27;102169.41;5083143;28;8845;-75
2021/03/04 00:37:48;;;;;;;;;75.67;58.67;;;;;0.88;70.22;102166.63;5083012;28;8868;-75
2021/03/04 00:40:44;;;;;;;;;71.67;59.33;;;;;0.88;70.16;102172.06;5083916;28;8830;-75
2021/03/04 00:43:39;;;;;;;;;78.33;62.33;;;;;0.88;70.22;102165.78;5081845;28;8841;-75
2021/03/04 00:46:35;;;;;;;;;72.00;60.00;;;;;0.89;69.55;102162.00;5070549;28;8823;-75
2021/03/04 00:49:31;;;;;;;;;73.00;57.67;;;;;0.93;68.89;102161.31;5082829;28;8981;-75
2021/03/04 00:52:26;;;;;;;;;61.67;53.33;;;;;0.92;69.79;102156.09;5079596;28;8952;-75
2021/03/04 00:55:22;;;;;;;;;76.33;57.00;;;;;0.71;69.59;102150.09;5081937;28;8841;-75
2021/03/04 00:57:58;;;;;;;;;58.67;52.67;;;;;0.70;70.14;102151.16;5083591;28;8853;-75
2021/03/04 01:00:53;;;;;;;;;78.00;60.67;;;;;0.70;69.63;102150.31;5080765;28;8845;-75
2021/03/04 01:03:49;;;;;;;;;71.00;58.33;;;;;0.41;69.90;102139.16;5084154;28;9712;-75
2021/03/04 01:06:34;;;;;;;;;55.00;48.00;;;;;0.55;69.57;102140.66;5085187;28;8861;-75
2021/03/04 01:09:30;;;;;;;;;70.67;56.67;;;;;0.61;69.40;102143.50;5083302;28;8837;-75
2021/03/04 01:12:02;;;;;;;;;77.33;59.67;;;;;0.46;70.19;102138.47;5064052;28;8845;-75
2021/03/04 01:14:33;;;;;;;;;86.00;62.00;;;;;0.55;69.43;102140.66;5046797;28;8834;-75
2021/03/04 01:17:29;;;;;;;;;64.33;53.33;;;;;0.49;70.30;102138.84;5063183;28;8832;-75
2021/03/04 01:19:56;;;;;;;;;72.00;57.00;;;;;0.16;70.98;102136.53;5061639;28;8866;-75
2021/03/04 01:22:51;;;;;;;;;58.00;49.67;;;;;0.41;70.54;102144.59;5062697;28;8844;-76
2021/03/04 01:25:47;;;;;;;;;67.00;54.67;;;;;0.51;70.79;102144.88;5062719;28;8829;-74
2021/03/04 01:28:42;;;;;;;;;63.33;50.33;;;;;0.54;70.45;102132.72;5060942;28;8958;-75
2021/03/04 01:31:24;;;;;;;;;45.00;42.33;;;;;0.42;70.97;102137.25;5062283;28;8851;-75
2021/03/04 01:34:20;;;;;;;;;49.67;42.33;;;;;0.27;72.03;102141.19;5062566;28;8844;-73
2021/03/04 01:37:09;;;;;;;;;49.33;44.33;;;;;0.32;71.72;102136.97;5062600;28;8862;-75
2021/03/04 01:39:37;;;;;;;;;42.33;41.00;;;;;0.32;71.96;102136.97;5065598;28;8862;-74
2021/03/04 01:42:33;;;;;;;;;42.67;40.67;;;;;0.32;71.34;102139.69;5068876;28;8872;-74
2021/03/04 01:45:00;;;;;;;;;37.67;34.67;;;;;0.33;71.48;102138.63;5066368;28;8864;-74
2021/03/04 01:47:56;;;;;;;;;34.00;33.67;;;;;0.49;71.11;102132.56;5066229;28;8841;-75
2021/03/04 01:50:52;;;;;;;;;35.67;32.67;;;;;0.52;71.31;102134.81;5064856;28;8855;-75
2021/03/04 01:53:48;;;;;;;;;33.67;29.33;;;;;0.54;71.23;102140.91;5065534;28;8832;-75
2021/03/04 01:56:15;;;;;;;;;33.67;33.67;;;;;0.48;71.20;102134.47;5064986;28;8851;-74
2021/03/04 01:59:12;;;;;;;;;33.67;31.00;;;;;0.44;72.03;102138.69;5065712;28;8864;-75
2021/03/04 02:02:07;;;;;;;;;32.33;30.33;;;;;0.56;71.54;102117.00;5069377;28;8828;-74
2021/03/04 02:05:09;;;;;;;;;31.00;31.00;;;;;0.47;71.85;102127.38;5052401;28;8826;-75
2021/03/04 02:08:08;;;;;;;;;34.00;30.00;;;;;0.44;71.51;102118.81;5063902;28;8922;-75
2021/03/04 02:11:14;;;;;;;;;32.33;32.00;;;;;0.53;71.00;102120.16;5074252;28;8926;-76
2021/03/04 02:14:14;;;;;;;;;30.00;30.00;;;;;0.51;71.74;102114.13;5085456;28;8842;-75
2021/03/04 02:17:12;;;;;;;;;31.00;27.67;;;;;0.49;70.50;102116.25;5084929;28;8873;-75
2021/03/04 02:20:13;;;;;;;;;33.67;33.00;;;;;0.60;71.21;102112.72;5083948;28;8829;-75
2021/03/04 02:22:47;;;;;;;;;35.67;33.00;;;;;0.64;71.04;102119.41;5084234;28;8849;-75
2021/03/04 02:25:24;;;;;;;;;30.00;30.00;;;;;0.53;71.13;102110.09;5084511;28;8837;-75
2021/03/04 02:28:24;;;;;;;;;42.00;36.67;;;;;0.62;70.89;102116.06;5085619;28;8849;-74
2021/03/04 02:31:21;;;;;;;;;42.00;39.67;;;;;0.68;70.28;102108.84;5083304;28;8841;-75
2021/03/04 02:34:19;;;;;;;;;37.67;34.00;;;;;0.63;70.35;102112.28;5084128;28;8835;-74
2021/03/04 02:37:18;;;;;;;;;24.33;20.67;;;;;0.62;70.20;102110.63;5081902;28;8842;-74
2021/03/04 02:40:16;;;;;;;;;41.33;38.00;;;;;0.38;70.98;102095.22;5062694;28;8845;-75
2021/03/04 02:43:14;;;;;;;;;37.67;37.00;;;;;0.34;72.01;102088.59;5082583;28;9582;-75
2021/03/04 02:46:10;;;;;;;;;39.33;37.00;;;;;0.53;71.25;102095.66;5079166;28;8856;-75
2021/03/04 02:49:07;;;;;;;;;27.67;25.67;;;;;0.46;71.37;102094.91;5087008;28;8816;-74
2021/03/04 02:52:06;;;;;;;;;37.33;35.33;;;;;0.49;71.76;102094.47;5076631;28;8838;-75
2021/03/04 02:54:49;;;;;;;;;35.00;35.00;;;;;0.48;71.83;102098.25;5068067;28;9574;-73
2021/03/04 02:57:20;;;;;;;;;44.33;39.00;;;;;0.49;71.95;102094.47;5085151;28;8926;-74
2021/03/04 02:59:49;;;;;;;;;39.67;34.00;;;;;0.72;71.00;102097.28;5084552;28;8882;-74
2021/03/04 03:02:45;;;;;;;;;45.33;44.33;;;;;0.60;72.99;102099.13;5068577;28;8846;-74
2021/03/04 03:05:44;;;;;;;;;44.00;44.00;;;;;0.77;73.62;102097.44;5084171;28;8842;-74
2021/03/04 03:08:40;;;;;;;;;54.33;45.33;;;;;1.00;74.25;102090.41;5077017;28;8827;-75
2021/03/04 03:12:18;;;;;;;;;62.67;52.67;;;;;1.05;75.70;102090.50;4541073;28;15060621;-75
2021/03/04 03:15:16;;;;;;;;;58.33;51.67;;;;;1.18;76.97;102100.38;5048960;28;8835;-75
2021/03/04 03:18:12;;;;;;;;;69.00;53.00;;;;;1.28;76.80;102098.72;5048471;28;8881;-75
2021/03/04 03:21:02;;;;;;;;;62.00;52.00;;;;;1.34;77.25;102086.06;5033858;28;8855;-76
2021/03/04 03:23:58;;;;;;;;;51.33;46.00;;;;;1.46;78.08;102088.78;5033445;28;8868;-75
2021/03/04 03:26:54;;;;;;;;;40.33;39.00;;;;;1.42;78.44;102087.63;5035886;28;8954;-75
2021/03/04 03:29:39;;;;;;;;;71.67;59.67;;;;;1.43;78.73;102087.38;5034345;28;8874;-75
2021/03/04 03:32:37;;;;;;;;;69.00;54.33;;;;;1.48;79.12;102082.06;5048245;28;8857;-75
2021/03/04 03:35:33;;;;;;;;;62.00;53.00;;;;;1.38;79.68;102081.78;5034573;28;8843;-75
2021/03/04 03:38:31;;;;;;;;;66.00;56.00;;;;;1.49;79.49;102077.44;5047533;28;8819;-75
2021/03/04 03:41:27;;;;;;;;;63.67;52.33;;;;;1.54;79.98;102072.94;5047602;28;8847;-76
2021/03/04 03:44:24;;;;;;;;;76.67;58.33;;;;;1.59;80.38;102058.56;5033784;28;8831;-75
2021/03/04 03:47:21;;;;;;;;;67.67;55.33;;;;;1.70;80.14;102057.75;5048522;28;8842;-75
2021/03/04 03:50:18;;;;;;;;;59.67;51.33;;;;;1.72;81.04;102058.34;5035263;28;8867;-76
2021/03/04 03:53:15;;;;;;;;;71.33;56.33;;;;;1.86;80.37;102051.56;5035143;28;8834;-76
2021/03/04 03:56:12;;;;;;;;;64.00;55.33;;;;;1.84;80.84;102045.53;5048465;28;8866;-75
2021/03/04 03:59:09;;;;;;;;;73.67;54.00;;;;;2.03;80.76;102050.81;5033672;28;8866;-76
2021/03/04 04:01:38;;;;;;;;;61.33;54.33;;;;;2.02;80.10;102044.53;5050272;28;8854;-76
2021/03/04 04:04:34;;;;;;;;;71.00;54.67;;;;;2.14;80.08;102028.94;5052726;28;8884;-76
2021/03/04 04:07:04;;;;;;;;;72.33;58.00;;;;;2.10;80.70;102026.94;5031023;28;8876;-75
2021/03/04 04:10:03;;;;;;;;;81.33;56.00;;;;;2.17;80.46;102022.19;5035195;28;8843;-75
2021/03/04 04:12:46;;;;;;;;;73.67;57.00;;;;;2.19;80.50;102011.84;5048785;28;8860;-77
2021/03/04 04:15:42;;;;;;;;;54.67;48.67;;;;;2.11;79.92;102013.06;5036078;28;8901;-77
2021/03/04 04:18:39;;;;;;;;;68.67;56.00;;;;;2.18;80.85;102002.84;5035006;28;8865;-78
2021/03/04 04:21:07;;;;;;;;;58.33;50.33;;;;;2.15;81.01;101997.03;5049586;28;8874;-78
2021/03/04 04:24:03;;;;;;;;;63.33;55.67;;;;;2.21;80.89;102009.69;5019750;28;8838;-78
2021/03/04 04:26:59;;;;;;;;;82.00;62.00;;;;;2.20;81.17;101997.13;5034370;28;8926;-77
2021/03/04 04:29:26;;;;;;;;;75.67;59.67;;;;;2.13;81.26;102000.00;5035675;28;8862;-78
2021/03/04 04:32:22;;;;;;;;;89.67;69.00;;;;;2.08;82.01;101999.09;5032234;28;8973;-77
2021/03/04 04:35:17;;;;;;;;;86.67;68.00;;;;;2.17;81.21;102005.81;5018272;28;8858;-78
2021/03/04 04:38:13;;;;;;;;;91.67;68.00;;;;;2.20;81.12;101994.38;5037338;28;8894;-77
2021/03/04 04:41:09;;;;;;;;;83.33;65.00;;;;;2.27;81.27;101992.34;5022451;28;8893;-78
2021/03/04 04:44:05;;;;;;;;;80.00;63.00;;;;;2.34;80.82;101992.22;5034745;28;8928;-78
2021/03/04 04:46:33;;;;;;;;;83.33;67.33;;;;;2.35;80.57;101989.22;5036382;28;8924;-77
2021/03/04 04:49:28;;;;;;;;;92.67;68.33;;;;;2.18;81.02;101985.63;5033488;28;8851;-78
2021/03/04 04:52:24;;;;;;;;;77.33;63.67;;;;;2.19;81.68;101979.09;5033167;28;8839;-79
2021/03/04 04:55:19;;;;;;;;;68.00;57.00;;;;;2.25;81.17;101983.59;5036640;28;8842;-79
2021/03/04 04:58:09;;;;;;;;;72.67;60.67;;;;;2.22;81.05;101976.72;5039828;28;8855;-79
2021/03/04 05:01:05;;;;;;;;;68.67;53.00;;;;;2.31;80.64;101979.88;5048401;28;8889;-80
2021/03/04 05:03:32;;;;;;;;;66.00;54.33;;;;;2.32;80.57;101975.25;5034330;28;8843;-79
2021/03/04 05:06:00;;;;;;;;;45.00;42.00;;;;;2.23;80.92;101978.38;5034295;28;8878;-79
2021/03/04 05:08:55;;;;;;;;;58.67;52.00;;;;;2.35;79.88;101975.56;5036274;28;8866;-79
2021/03/04 05:11:26;;;;;;;;;57.00;49.67;;;;;2.17;80.84;101973.06;5046244;28;8847;-78
2021/03/04 05:13:54;;;;;;;;;57.67;49.33;;;;;2.29;79.87;101979.28;5039811;28;8866;-79
2021/03/04 05:16:21;;;;;;;;;65.33;54.00;;;;;2.33;79.72;101968.72;5047731;28;8876;-79
2021/03/04 05:18:50;;;;;;;;;70.00;57.33;;;;;2.30;79.94;101970.03;5031034;28;8901;-78
2021/03/04 05:21:31;;;;;;;;;82.67;65.00;;;;;2.29;79.32;101962.91;5038494;28;9003;-78
2021/03/04 05:23:59;;;;;;;;;71.00;59.33;;;;;2.41;79.30;101960.94;5036577;28;8847;-79
2021/03/04 05:26:26;;;;;;;;;64.00;55.00;;;;;2.25;78.88;101953.56;5023677;28;8850;-78
2021/03/04 05:29:22;;;;;;;;;64.67;54.67;;;;;2.48;78.44;101958.91;5035966;28;8854;-79
2021/03/04 05:32:17;;;;;;;;;66.00;54.00;;;;;2.51;78.25;101952.09;5033805;28;8863;-79
2021/03/04 05:35:13;;;;;;;;;67.00;56.00;;;;;2.59;78.44;101948.97;5018624;28;8851;-78
2021/03/04 05:38:10;;;;;;;;;65.67;54.00;;;;;2.65;78.17;101941.69;5034199;28;8839;-79
2021/03/04 05:41:07;;;;;;;;;70.67;54.33;;;;;2.70;77.89;101937.16;5023919;28;8977;-79
2021/03/04 05:43:38;;;;;;;;;64.33;54.33;;;;;2.67;77.83;101940.34;5036208;28;8888;-79
2021/03/04 05:46:06;;;;;;;;;58.33;47.00;;;;;2.80;77.33;101931.03;5017841;28;9651;-79
2021/03/04 05:49:05;;;;;;;;;64.33;52.67;;;;;2.86;77.31;101932.75;5033657;28;8846;-80
2021/03/04 05:52:04;;;;;;;;;68.00;55.00;;;;;3.05;76.63;101916.91;5032654;28;8870;-79
2021/03/04 05:54:35;;;;;;;;;69.33;56.33;;;;;3.25;76.10;101916.38;5035332;28;8842;-80
2021/03/04 05:57:18;;;;;;;;;67.00;54.00;;;;;3.35;76.06;101924.72;5033682;28;8882;-81
2021/03/04 06:00:14;;;;;;;;;58.33;49.00;;;;;3.26;76.23;101910.66;5018767;28;8835;-80
2021/03/04 06:03:10;;;;;;;;;61.33;50.67;;;;;3.40;76.18;101911.13;5032997;28;8843;-79
2021/03/04 06:06:07;;;;;;;;;58.00;49.67;;;;;3.55;75.36;101907.78;5017599;28;8858;-80
2021/03/04 06:09:03;;;;;;;;;67.00;52.33;;;;;3.54;76.23;101897.91;5034132;28;8843;-79
2021/03/04 06:12:03;;;;;;;;;59.33;47.67;;;;;3.65;75.85;101887.91;5018889;28;8874;-80
2021/03/04 06:14:34;;;;;;;;;49.67;46.00;;;;;3.82;75.28;101877.72;5039901;28;8835;-80
2021/03/04 06:17:18;;;;;;;;;42.67;40.67;;;;;3.94;75.08;101878.41;5017290;28;8866;-80
2021/03/04 06:19:57;;;;;;;;;44.33;41.67;;;;;4.07;74.33;101868.97;5031190;28;8891;-79
2021/03/04 06:22:33;;;;;;;;;46.67;43.67;;;;;4.11;74.54;101873.63;5030979;28;11619;-80
2021/03/04 06:25:09;;;;;;;;;35.33;35.33;;;;;4.18;73.87;101857.84;5013933;28;11659;-79
2021/03/04 06:27:39;;;;;;;;;40.50;38.50;;;;;4.39;73.82;101858.03;4999624;28;12384;-80
2021/03/04 06:30:10;;;;;;;;;34.00;33.00;;;;;4.64;73.64;101846.44;5031629;28;11741;-80
2021/03/04 06:32:54;;;;;;;;;31.50;31.50;;;;;4.61;73.45;101842.31;5017550;28;11698;-80
2021/03/04 06:35:23;;;;;;;;;26.75;26.00;;;;;4.84;71.73;101838.34;5015883;28;11689;-79
2021/03/04 06:38:00;;;;;;;;;27.25;26.50;;;;;4.82;71.54;101839.69;5035273;28;11745;-79
2021/03/04 06:40:55;;;;;;;;;31.00;31.00;;;;;4.98;71.34;101831.31;5017788;28;11731;-81
2021/03/04 06:44:02;;;;;;;;;34.50;29.50;;;;;4.96;70.79;101836.22;5032901;28;11610;-80
2021/03/04 06:46:57;;;;;;;;;31.00;25.00;;;;;5.22;70.43;101834.47;5029707;28;11722;-80
2021/03/04 06:49:54;;;;;;;;;32.00;29.00;;;;;5.58;69.86;101840.88;5031061;28;11707;-80
2021/03/04 06:52:50;;;;;;;;;27.00;26.00;;;;;5.81;68.24;101836.03;5018496;28;11625;-80
2021/03/04 06:55:50;;;;;;;;;22.25;21.75;;;;;5.47;68.50;101828.25;5016646;28;11815;-79
2021/03/04 06:58:38;;;;;;;;;21.00;20.75;;;;;5.52;68.20;101821.94;5017066;28;11702;-79
2021/03/04 07:01:11;;;;;;;;;24.00;24.00;;;;;5.90;67.50;101820.66;5036521;28;11608;-80
2021/03/04 07:04:20;;;;;;;;;18.00;18.00;;;;;6.10;66.75;101828.13;5033088;28;11582;-80
2021/03/04 07:06:51;;;;;;;;;25.00;24.50;;;;;6.12;66.07;101815.78;5021396;28;11618;-78
2021/03/04 07:09:51;;;;;;;;;23.25;21.25;;;;;6.23;65.44;101813.06;5018013;28;11633;-78
2021/03/04 07:12:24;;;;;;;;;32.25;27.75;;;;;6.44;65.81;101808.34;5034478;28;11622;-80
2021/03/04 07:15:21;;;;;;;;;18.25;18.25;;;;;6.60;65.15;101805.34;5030100;28;11226;-79
2021/03/04 07:18:20;;;;;;;;;20.00;20.00;;;;;6.64;64.94;101798.16;5033321;28;11696;-77
2021/03/04 07:20:50;;;;;;;;;17.75;17.50;;;;;6.68;64.91;101798.44;5034631;28;12550;-77
2021/03/04 07:23:18;;;;;;;;;19.50;17.00;;;;;6.85;64.87;101785.22;5035322;28;11593;-79
2021/03/04 07:25:48;;;;;;;;;29.25;24.25;;;;;6.92;64.36;101777.50;5032410;28;11739;-78
2021/03/04 07:28:18;;;;;;;;;17.50;17.50;;;;;7.02;64.06;101773.06;5035292;28;11614;-80
2021/03/04 07:31:16;;;;;;;;;17.25;16.50;;;;;7.09;63.67;101765.31;5033911;28;11598;-79
2021/03/04 07:33:51;;;;;;;;;18.00;18.00;;;;;7.11;63.93;101765.84;5027382;28;11599;-78
2021/03/04 07:36:23;;;;;;;;;27.50;21.00;;;;;7.31;63.49;101771.28;5038155;28;11615;-78
2021/03/04 07:39:00;;;;;;;;;23.25;23.25;;;;;7.19;64.51;101771.59;5034537;28;11599;-79
2021/03/04 07:41:41;;;;;;;;;10.00;9.25;;;;;7.37;63.92;101764.66;5014756;28;11609;-79
2021/03/04 07:44:32;;;;;;;;;21.25;19.25;;;;;7.30;63.98;101749.56;5035549;28;11628;-79
2021/03/04 07:47:34;;;;;;;;;16.75;15.75;;;;;7.52;63.89;101750.81;5032246;28;11624;-78
2021/03/04 07:50:24;;;;;;;;;23.50;23.50;;;;;7.71;63.26;101742.69;5019305;28;12370;-79
2021/03/04 07:53:03;;;;;;;;;16.25;16.25;;;;;7.52;63.62;101741.72;5015672;28;11632;-79
2021/03/04 07:55:38;;;;;;;;;23.75;23.75;;;;;7.77;62.95;101740.72;5018344;28;11700;-79
2021/03/04 07:58:14;;;;;;;;;21.00;21.00;;;;;7.42;63.39;101734.34;5019509;28;11645;-79
2021/03/04 08:00:42;;;;;;;;;21.75;21.75;;;;;7.72;63.39;101732.50;5024018;28;11589;-79
2021/03/04 08:03:11;;;;;;;;;27.50;24.50;;;;;7.85;62.80;101728.28;5018845;28;11603;-79
2021/03/04 08:05:43;;;;;;;;;18.25;17.00;;;;;8.18;61.85;101740.38;5036857;28;11691;-78
2021/03/04 08:08:40;;;;;;;;;21.00;20.00;;;;;8.05;61.96;101737.22;5036579;28;11686;-79
2021/03/04 08:11:08;;;;;;;;;21.00;19.75;;;;;7.96;62.10;101716.06;5034277;28;11674;-79
2021/03/04 08:13:40;;;;;;;;;21.00;19.75;;;;;8.07;61.76;101725.91;5019428;28;11606;-85
2021/03/04 08:16:17;;;;;;;;;26.75;25.50;;;;;8.46;60.88;101708.47;5034791;28;12449;-80
2021/03/04 08:19:12;;;;;;;;;19.50;18.75;;;;;8.75;60.07;101712.00;5033921;28;11669;-80
2021/03/04 08:21:41;;;;;;;;;23.25;22.50;;;;;9.00;59.35;101708.09;5035741;28;11651;-72
2021/03/04 08:24:38;;;;;;;;;26.00;23.50;;;;;9.02;59.59;101708.63;5033872;28;11608;-79
2021/03/04 08:27:08;;;;;;;;;22.00;21.75;;;;;9.28;57.95;101702.75;5033658;28;11634;-79
2021/03/04 08:30:08;;;;;;;;;23.50;22.00;;;;;9.41;57.57;101686.28;5039361;28;11762;-79
2021/03/04 08:33:10;;;;;;;;;20.75;20.75;;;;;9.45;56.65;101680.97;5022086;28;11552;-79
2021/03/04 08:36:05;;;;;;;;;25.00;18.75;;;;;9.58;55.11;101679.38;5018457;28;11579;-77
2021/03/04 08:39:02;;;;;;;;;18.50;17.25;;;;;9.53;55.34;101672.03;5035999;28;11546;-79
2021/03/04 08:42:06;;;;;;;;;13.50;13.50;;;;;9.43;54.95;101672.16;5024475;28;11626;-78
2021/03/04 08:45:04;;;;;;;;;19.75;18.50;;;;;9.68;54.56;101665.44;5033790;28;11548;-77
2021/03/04 08:47:39;;;;;;;;;18.50;18.50;;;;;9.53;53.97;101671.19;5024699;28;11705;-79
2021/03/04 08:50:16;;;;;;;;;22.25;20.75;;;;;9.50;54.60;101660.75;5015554;28;11530;-79
2021/03/04 08:53:15;;;;;;;;;18.75;17.25;;;;;9.41;54.42;101661.41;5033762;28;11545;-80
2021/03/04 08:56:11;;;;;;;;;16.25;14.25;;;;;9.99;52.52;101654.69;5032444;28;11545;-79
2021/03/04 08:58:43;;;;;;;;;16.75;16.75;;;;;9.56;53.30;101659.53;5036080;28;11592;-80
2021/03/04 09:01:12;;;;;;;;;18.00;17.50;;;;;9.93;52.50;101648.41;5034561;28;11525;-78
2021/03/04 09:04:16;;;;;;;;;13.75;13.75;;;;;10.32;51.47;101647.19;5020512;28;11681;-82
2021/03/04 09:07:35;;;;;;;;;17.00;16.25;;;;;9.60;52.59;101655.88;5032119;28;11581;-79
2021/03/04 09:10:38;;;;;;;;;16.00;15.75;;;;;10.27;50.91;101648.13;5023505;28;11540;-76
2021/03/04 09:13:36;;;;;;;;;20.50;20.00;;;;;10.59;50.03;101629.78;5020779;28;11532;-77
2021/03/04 09:16:45;;;;;;;;;18.50;13.00;;;;;10.09;51.35;101618.56;5020817;28;11542;-81
2021/03/04 09:19:43;;;;;;;;;12.75;12.75;;;;;10.38;50.35;101609.19;5019931;28;12394;-81
2021/03/04 09:22:43;;;;;;;;;16.00;16.00;;;;;10.67;49.72;101611.66;5019197;28;11554;-80
2021/03/04 09:25:39;;;;;;;;;12.75;12.25;;;;;10.23;50.22;101613.09;5010012;28;11679;-80
2021/03/04 09:28:41;;;;;;;;;12.50;12.50;;;;;10.17;50.85;101631.66;5033398;28;11265;-76
2021/03/04 09:31:48;;;;;;;;;14.25;9.75;;;;;10.22;50.99;101603.97;5020523;28;11335;-80
2021/03/04 09:34:45;;;;;;;;;17.00;17.00;;;;;10.50;50.53;101587.38;5020749;28;11570;-73
2021/03/04 09:37:40;;;;;;;;;15.50;15.50;;;;;10.71;50.09;101598.81;5032929;28;11522;-81
2021/03/04 09:40:36;;;;;;;;;11.00;11.00;;;;;10.76;50.12;101566.34;5031835;28;11533;-74
2021/03/04 09:43:13;;;;;;;;;9.75;9.75;;;;;10.29;50.56;101592.50;5035061;28;11136;-79
2021/03/04 09:46:09;;;;;;;;;13.75;12.75;;;;;10.86;49.75;101565.28;5034068;28;11141;-77
2021/03/04 09:48:39;;;;;;;;;18.50;15.75;;;;;10.86;49.41;101581.88;5037004;28;11539;-78
2021/03/04 09:51:07;;;;;;;;;18.50;18.25;;;;;11.01;49.98;101583.50;5034954;28;11418;-78
2021/03/04 09:53:48;;;;;;;;;17.75;15.25;;;;;10.70;50.54;101570.34;5036066;28;11184;-80
2021/03/04 09:56:44;;;;;;;;;15.25;15.25;;;;;10.94;50.71;101552.66;5033092;28;11244;-76
2021/03/04 09:59:17;;;;;;;;;1.50;1.25;;;;;11.35;49.10;101560.81;5016480;28;11167;-77
2021/03/04 10:02:13;;;;;;;;;14.00;14.00;;;;;11.04;50.08;101547.72;5032720;28;10887;-78
2021/03/04 10:04:56;;;;;;;;;20.75;18.75;;;;;11.74;48.93;101546.22;5039129;28;10899;-76
2021/03/04 10:08:02;;;;;;;;;15.75;15.75;;;;;11.45;49.22;101548.66;5017069;28;10898;-78
2021/03/04 10:10:34;;;;;;;;;14.50;14.50;;;;;11.49;48.91;101572.63;5034029;28;10978;-80
2021/03/04 10:13:31;;;;;;;;;15.75;15.75;;;;;11.70;48.87;101525.81;5034940;28;10970;-72
2021/03/04 10:16:26;;;;;;;;;25.50;19.75;;;;;11.82;48.48;101544.66;5040715;28;10914;-78
2021/03/04 10:19:23;;;;;;;;;18.50;17.50;;;;;11.70;48.56;101561.84;5013626;28;10788;-78
2021/03/04 10:22:23;;;;;;;;;9.75;9.75;;;;;11.26;49.39;101535.81;5017378;28;10864;-78
2021/03/04 10:25:19;;;;;;;;;13.25;13.25;;;;;11.53;49.76;101525.72;5007230;28;10725;-79
2021/03/04 10:28:16;;;;;;;;;13.25;12.25;;;;;11.17;50.31;101529.38;5032850;28;10606;-80
2021/03/04 10:31:12;;;;;;;;;7.50;7.50;;;;;11.60;49.97;101509.47;5032877;28;10907;-80
2021/03/04 10:34:33;;;;;;;;;14.00;14.00;;;;;11.74;49.93;101488.03;5034511;28;10800;-83
2021/03/04 10:37:29;;;;;;;;;17.50;16.75;;;;;11.36;50.17;101507.88;5019028;28;10758;-79
2021/03/04 10:40:26;;;;;;;;;15.25;15.25;;;;;11.51;50.33;101494.75;5020016;28;10728;-80
2021/03/04 10:43:22;;;;;;;;;19.75;18.25;;;;;12.10;48.89;101492.56;5030116;28;10896;-81
2021/03/04 10:45:50;;;;;;;;;14.50;14.50;;;;;12.08;49.10;101473.50;5000544;28;10751;-76
2021/03/04 10:48:22;;;;;;;;;21.00;18.25;;;;;11.62;49.91;101482.25;5000992;28;10720;-82
2021/03/04 10:50:55;;;;;;;;;16.75;16.75;;;;;12.11;49.35;101478.38;5020656;28;10582;-80
2021/03/04 10:53:22;;;;;;;;;17.25;15.00;;;;;11.86;49.34;101477.16;5026416;28;10644;-80
2021/03/04 10:55:50;;;;;;;;;19.00;18.25;;;;;12.15;49.00;101489.66;5017791;28;10874;-81
2021/03/04 10:58:18;;;;;;;;;11.25;11.25;;;;;11.80;50.17;101472.91;5035336;28;10806;-81
2021/03/04 11:00:45;;;;;;;;;16.25;16.25;;;;;11.94;49.69;101467.25;5034407;28;10646;-83
2021/03/04 11:03:13;;;;;;;;;18.75;18.75;;;;;12.03;50.04;101467.28;5035253;28;10597;-81
2021/03/04 11:05:45;;;;;;;;;16.00;16.00;;;;;12.19;49.38;101465.69;5023566;28;10932;-79
2021/03/04 11:08:13;;;;;;;;;11.25;11.00;;;;;12.65;48.54;101461.50;5036333;28;10602;-82
2021/03/04 11:10:40;;;;;;;;;14.75;14.75;;;;;12.27;49.09;101470.47;5034719;28;10495;-78
2021/03/04 11:13:07;;;;;;;;;16.75;16.25;;;;;12.60;48.55;101440.28;5034654;28;10457;-78
2021/03/04 11:15:34;;;;;;;;;15.75;15.75;;;;;12.21;49.38;101444.00;5035907;28;10508;-80
2021/03/04 11:18:01;;;;;;;;;17.75;17.75;;;;;12.18;49.67;101447.41;5034251;28;10556;-80
2021/03/04 11:20:56;;;;;;;;;10.50;10.25;;;;;12.43;49.56;101441.09;5036009;28;10665;-80
2021/03/04 11:23:55;;;;;;;;;13.00;11.25;;;;;12.88;48.72;101437.16;5030376;28;10479;-83
2021/03/04 11:26:50;;;;;;;;;15.25;14.50;;;;;13.23;47.99;101424.06;5022702;28;10550;-82
2021/03/04 11:29:18;;;;;;;;;15.50;15.50;;;;;13.37;46.74;101423.88;5037260;28;10429;-79
2021/03/04 11:32:16;;;;;;;;;13.25;12.25;;;;;13.54;46.76;101426.56;5039956;28;10139;-81
2021/03/04 11:35:13;;;;;;;;;15.50;15.50;;;;;13.86;46.65;101420.38;5042769;28;10265;-80
2021/03/04 11:38:08;;;;;;;;;17.00;17.00;;;;;13.11;47.47;101410.81;5051190;28;10237;-77
2021/03/04 11:41:04;;;;;;;;;18.25;17.50;;;;;13.39;46.71;101407.69;5040775;28;10028;-78
2021/03/04 11:44:01;;;;;;;;;17.75;16.50;;;;;13.66;46.37;101406.44;5037426;28;10273;-78
2021/03/04 11:46:56;;;;;;;;;14.25;14.25;;;;;13.78;45.67;101392.63;5036262;28;10252;-81
2021/03/04 11:49:53;;;;;;;;;18.75;17.50;;;;;14.42;44.75;101393.19;5048756;28;10121;-78
2021/03/04 11:52:50;;;;;;;;;17.00;16.00;;;;;14.31;44.38;101388.34;5032442;28;10142;-78
2021/03/04 11:55:45;;;;;;;;;14.50;14.50;;;;;14.20;44.90;101390.72;5031550;28;9879;-80
2021/03/04 11:58:13;;;;;;;;;19.25;18.00;;;;;12.82;46.74;101400.44;5026896;28;9772;-77
2021/03/04 12:01:09;;;;;;;;;15.75;15.75;;;;;13.52;46.58;101384.41;5026605;28;10242;-81
2021/03/04 12:03:52;;;;;;;;;14.75;14.75;;;;;13.98;45.51;101371.56;5021518;28;10074;-80
2021/03/04 12:06:19;;;;;;;;;13.75;13.75;;;;;13.79;45.16;101380.34;5036638;28;9991;-79
2021/03/04 12:08:46;;;;;;;;;17.50;17.50;;;;;13.93;45.13;101375.34;5036555;28;10570;-79
2021/03/04 12:11:33;;;;;;;;;13.00;12.25;;;;;13.93;45.38;101368.97;5019801;28;10108;-77
2021/03/04 12:14:29;;;;;;;;;18.25;15.75;;;;;13.59;46.09;101370.81;5032409;28;9965;-79
2021/03/04 12:17:25;;;;;;;;;14.50;14.00;;;;;13.58;46.23;101358.06;5035623;28;10241;-79
2021/03/04 12:19:53;;;;;;;;;18.00;18.00;;;;;13.73;45.97;101370.59;5036533;28;10269;-80
2021/03/04 12:22:20;;;;;;;;;13.50;13.50;;;;;14.12;45.20;101361.00;5018475;28;10205;-79
2021/03/04 12:25:16;;;;;;;;;12.00;12.00;;;;;13.77;46.25;101360.41;5020092;28;10031;-81
2021/03/04 12:28:11;;;;;;;;;14.00;13.50;;;;;13.84;45.97;101344.00;5033163;28;10035;-77
2021/03/04 12:31:07;;;;;;;;;15.75;15.75;;;;;13.68;46.18;101346.56;5022082;28;9913;-76
2021/03/04 12:33:57;;;;;;;;;14.25;14.25;;;;;12.94;47.53;101353.38;5034315;28;10129;-76
2021/03/04 12:36:52;;;;;;;;;16.25;15.50;;;;;13.12;47.31;101350.56;5032528;28;10289;-77
2021/03/04 12:39:50;;;;;;;;;13.75;13.75;;;;;12.78;47.75;101341.97;5019200;28;10320;-79
2021/03/04 12:42:45;;;;;;;;;17.50;17.50;;;;;12.93;47.56;101331.50;5023488;28;10286;-81
2021/03/04 12:45:41;;;;;;;;;16.25;16.00;;;;;12.85;47.58;101332.34;5034591;28;10359;-78
2021/03/04 12:48:36;;;;;;;;;14.25;14.25;;;;;12.71;48.56;101318.66;5022510;28;10437;-79
2021/03/04 12:51:33;;;;;;;;;11.25;11.25;;;;;12.47;48.76;101333.88;5023276;28;10642;-79
2021/03/04 12:54:29;;;;;;;;;17.00;17.00;;;;;12.52;49.18;101317.06;5019695;28;10448;-80